sensor_id;sensor_type;location;lat;lon;timestamp;P1;durP1;ratioP1;P2;durP2;ratioP2
47749;SDS011;49810;48.160;10.812;2023-04-07T00:01:15;12.32;;;7.18;;
47749;SDS011;49810;48.160;10.812;2023-04-07T00:03:44;12.85;;;6.40;;
47749;SDS011;49810;48.160;10.812;2023-04-07T00:06:12;12.35;;;6.43;;
47749;SDS011;49810;48.160;10.812;2023-04-07T00:08:40;13.48;;;6.30;;
47749;SDS011;49810;48.160;10.812;2023-04-07T00:11:07;10.70;;;6.07;;
47749;SDS011;49810;48.160;10.812;2023-04-07T00:13:35;10.65;;;5.57;;
47749;SDS011;49810;48.160;10.812;2023-04-07T00:16:03;8.88;;;4.57;;
47749;SDS011;49810;48.160;10.812;2023-04-07T00:18:31;7.93;;;4.32;;
47749;SDS011;49810;48.160;10.812;2023-04-07T00:21:00;9.05;;;4.32;;
47749;SDS011;49810;48.160;10.812;2023-04-07T00:23:29;6.93;;;3.85;;
47749;SDS011;49810;48.160;10.812;2023-04-07T00:25:57;6.00;;;3.47;;
47749;SDS011;49810;48.160;10.812;2023-04-07T00:28:24;6.88;;;3.63;;
47749;SDS011;49810;48.160;10.812;2023-04-07T00:30:52;5.72;;;3.05;;
47749;SDS011;49810;48.160;10.812;2023-04-07T00:33:20;6.88;;;3.30;;
47749;SDS011;49810;48.160;10.812;2023-04-07T00:35:48;9.55;;;4.05;;
47749;SDS011;49810;48.160;10.812;2023-04-07T00:38:17;7.90;;;3.35;;
47749;SDS011;49810;48.160;10.812;2023-04-07T00:40:45;9.02;;;4.05;;
47749;SDS011;49810;48.160;10.812;2023-04-07T00:43:13;7.63;;;3.53;;
47749;SDS011;49810;48.160;10.812;2023-04-07T00:45:41;9.20;;;4.13;;
47749;SDS011;49810;48.160;10.812;2023-04-07T00:48:09;7.35;;;3.80;;
47749;SDS011;49810;48.160;10.812;2023-04-07T00:50:37;6.57;;;4.28;;
47749;SDS011;49810;48.160;10.812;2023-04-07T00:53:05;6.35;;;3.58;;
47749;SDS011;49810;48.160;10.812;2023-04-07T00:55:34;7.70;;;4.13;;
47749;SDS011;49810;48.160;10.812;2023-04-07T00:58:03;8.35;;;3.80;;
47749;SDS011;49810;48.160;10.812;2023-04-07T01:00:31;7.80;;;4.38;;
47749;SDS011;49810;48.160;10.812;2023-04-07T01:03:00;9.20;;;3.90;;
47749;SDS011;49810;48.160;10.812;2023-04-07T01:05:35;10.35;;;4.30;;
47749;SDS011;49810;48.160;10.812;2023-04-07T01:08:07;7.35;;;3.88;;
47749;SDS011;49810;48.160;10.812;2023-04-07T01:10:40;7.88;;;4.13;;
47749;SDS011;49810;48.160;10.812;2023-04-07T01:13:16;7.43;;;4.22;;
47749;SDS011;49810;48.160;10.812;2023-04-07T01:15:45;7.50;;;4.00;;
47749;SDS011;49810;48.160;10.812;2023-04-07T01:18:16;7.93;;;4.13;;
47749;SDS011;49810;48.160;10.812;2023-04-07T01:20:46;8.68;;;4.32;;
47749;SDS011;49810;48.160;10.812;2023-04-07T01:23:16;8.43;;;4.13;;
47749;SDS011;49810;48.160;10.812;2023-04-07T01:25:58;8.00;;;3.97;;
47749;SDS011;49810;48.160;10.812;2023-04-07T01:28:34;12.32;;;5.05;;
47749;SDS011;49810;48.160;10.812;2023-04-07T01:31:09;8.57;;;4.18;;
47749;SDS011;49810;48.160;10.812;2023-04-07T01:33:38;7.65;;;4.20;;
47749;SDS011;49810;48.160;10.812;2023-04-07T01:36:06;8.73;;;4.75;;
47749;SDS011;49810;48.160;10.812;2023-04-07T01:38:35;8.68;;;4.15;;
47749;SDS011;49810;48.160;10.812;2023-04-07T01:41:04;7.22;;;4.50;;
47749;SDS011;49810;48.160;10.812;2023-04-07T01:43:32;11.48;;;4.90;;
47749;SDS011;49810;48.160;10.812;2023-04-07T01:46:00;7.43;;;4.45;;
47749;SDS011;49810;48.160;10.812;2023-04-07T01:48:30;7.93;;;4.95;;
47749;SDS011;49810;48.160;10.812;2023-04-07T01:50:58;9.15;;;4.55;;
47749;SDS011;49810;48.160;10.812;2023-04-07T01:53:26;9.82;;;4.93;;
47749;SDS011;49810;48.160;10.812;2023-04-07T01:55:54;8.75;;;4.97;;
47749;SDS011;49810;48.160;10.812;2023-04-07T01:58:22;8.48;;;4.47;;
47749;SDS011;49810;48.160;10.812;2023-04-07T02:00:51;7.53;;;4.80;;
47749;SDS011;49810;48.160;10.812;2023-04-07T02:03:22;10.35;;;5.00;;
47749;SDS011;49810;48.160;10.812;2023-04-07T02:05:54;10.38;;;5.32;;
47749;SDS011;49810;48.160;10.812;2023-04-07T02:08:26;9.98;;;5.18;;
47749;SDS011;49810;48.160;10.812;2023-04-07T02:10:56;7.32;;;5.03;;
47749;SDS011;49810;48.160;10.812;2023-04-07T02:13:28;9.07;;;5.05;;
47749;SDS011;49810;48.160;10.812;2023-04-07T02:15:57;8.68;;;4.78;;
47749;SDS011;49810;48.160;10.812;2023-04-07T02:18:27;9.88;;;5.70;;
47749;SDS011;49810;48.160;10.812;2023-04-07T02:20:58;9.73;;;5.30;;
47749;SDS011;49810;48.160;10.812;2023-04-07T02:23:27;10.00;;;4.95;;
47749;SDS011;49810;48.160;10.812;2023-04-07T02:25:55;8.13;;;4.90;;
47749;SDS011;49810;48.160;10.812;2023-04-07T02:28:24;9.50;;;5.70;;
47749;SDS011;49810;48.160;10.812;2023-04-07T02:30:52;9.43;;;5.57;;
47749;SDS011;49810;48.160;10.812;2023-04-07T02:33:20;13.90;;;6.90;;
47749;SDS011;49810;48.160;10.812;2023-04-07T02:35:47;11.57;;;6.40;;
47749;SDS011;49810;48.160;10.812;2023-04-07T02:38:17;11.75;;;7.10;;
47749;SDS011;49810;48.160;10.812;2023-04-07T02:40:44;10.38;;;6.05;;
47749;SDS011;49810;48.160;10.812;2023-04-07T02:43:12;11.73;;;6.70;;
47749;SDS011;49810;48.160;10.812;2023-04-07T02:45:42;10.52;;;6.00;;
47749;SDS011;49810;48.160;10.812;2023-04-07T02:48:10;10.80;;;6.70;;
47749;SDS011;49810;48.160;10.812;2023-04-07T02:50:37;11.48;;;6.47;;
47749;SDS011;49810;48.160;10.812;2023-04-07T02:53:07;12.05;;;6.10;;
47749;SDS011;49810;48.160;10.812;2023-04-07T02:55:37;11.18;;;6.28;;
47749;SDS011;49810;48.160;10.812;2023-04-07T02:58:04;12.65;;;6.40;;
47749;SDS011;49810;48.160;10.812;2023-04-07T03:00:39;13.38;;;6.32;;
47749;SDS011;49810;48.160;10.812;2023-04-07T03:03:33;10.35;;;5.80;;
47749;SDS011;49810;48.160;10.812;2023-04-07T03:06:10;10.70;;;6.07;;
47749;SDS011;49810;48.160;10.812;2023-04-07T03:08:49;10.10;;;6.07;;
47749;SDS011;49810;48.160;10.812;2023-04-07T03:11:18;11.27;;;6.55;;
47749;SDS011;49810;48.160;10.812;2023-04-07T03:13:46;9.23;;;5.85;;
47749;SDS011;49810;48.160;10.812;2023-04-07T03:16:14;13.77;;;6.07;;
47749;SDS011;49810;48.160;10.812;2023-04-07T03:18:56;10.90;;;6.03;;
47749;SDS011;49810;48.160;10.812;2023-04-07T03:21:24;12.95;;;6.10;;
47749;SDS011;49810;48.160;10.812;2023-04-07T03:23:52;13.07;;;6.47;;
47749;SDS011;49810;48.160;10.812;2023-04-07T03:26:21;10.27;;;6.20;;
47749;SDS011;49810;48.160;10.812;2023-04-07T03:28:49;9.90;;;6.18;;
47749;SDS011;49810;48.160;10.812;2023-04-07T03:31:18;11.65;;;7.13;;
47749;SDS011;49810;48.160;10.812;2023-04-07T03:33:50;10.88;;;6.07;;
47749;SDS011;49810;48.160;10.812;2023-04-07T03:36:19;10.48;;;6.38;;
47749;SDS011;49810;48.160;10.812;2023-04-07T03:38:48;14.13;;;6.90;;
47749;SDS011;49810;48.160;10.812;2023-04-07T03:41:17;12.10;;;6.72;;
47749;SDS011;49810;48.160;10.812;2023-04-07T03:43:47;12.98;;;7.40;;
47749;SDS011;49810;48.160;10.812;2023-04-07T03:46:17;14.20;;;7.45;;
47749;SDS011;49810;48.160;10.812;2023-04-07T03:48:45;13.85;;;7.45;;
47749;SDS011;49810;48.160;10.812;2023-04-07T03:51:13;14.48;;;7.82;;
47749;SDS011;49810;48.160;10.812;2023-04-07T03:53:44;13.00;;;7.38;;
47749;SDS011;49810;48.160;10.812;2023-04-07T03:56:26;13.25;;;7.43;;
47749;SDS011;49810;48.160;10.812;2023-04-07T03:58:57;12.88;;;7.72;;
47749;SDS011;49810;48.160;10.812;2023-04-07T04:01:30;16.92;;;7.85;;
47749;SDS011;49810;48.160;10.812;2023-04-07T04:04:05;14.75;;;7.85;;
47749;SDS011;49810;48.160;10.812;2023-04-07T04:06:33;12.65;;;7.65;;
47749;SDS011;49810;48.160;10.812;2023-04-07T04:09:22;13.27;;;8.20;;
47749;SDS011;49810;48.160;10.812;2023-04-07T04:11:50;16.38;;;8.43;;
47749;SDS011;49810;48.160;10.812;2023-04-07T04:14:19;14.70;;;8.40;;
47749;SDS011;49810;48.160;10.812;2023-04-07T04:16:53;15.23;;;8.70;;
47749;SDS011;49810;48.160;10.812;2023-04-07T04:19:35;14.90;;;8.60;;
47749;SDS011;49810;48.160;10.812;2023-04-07T04:22:12;14.68;;;8.13;;
47749;SDS011;49810;48.160;10.812;2023-04-07T04:24:47;16.55;;;8.55;;
47749;SDS011;49810;48.160;10.812;2023-04-07T04:27:15;17.42;;;9.23;;
47749;SDS011;49810;48.160;10.812;2023-04-07T04:29:50;17.83;;;8.73;;
47749;SDS011;49810;48.160;10.812;2023-04-07T04:32:26;15.52;;;9.07;;
47749;SDS011;49810;48.160;10.812;2023-04-07T04:34:54;16.42;;;9.60;;
47749;SDS011;49810;48.160;10.812;2023-04-07T04:37:23;19.23;;;9.38;;
47749;SDS011;49810;48.160;10.812;2023-04-07T04:39:51;17.42;;;10.05;;
47749;SDS011;49810;48.160;10.812;2023-04-07T04:42:21;19.02;;;10.65;;
47749;SDS011;49810;48.160;10.812;2023-04-07T04:44:50;17.17;;;9.73;;
47749;SDS011;49810;48.160;10.812;2023-04-07T04:47:20;18.55;;;9.73;;
47749;SDS011;49810;48.160;10.812;2023-04-07T04:49:49;18.83;;;10.35;;
47749;SDS011;49810;48.160;10.812;2023-04-07T04:52:18;19.13;;;11.20;;
47749;SDS011;49810;48.160;10.812;2023-04-07T04:54:48;20.17;;;11.60;;
47749;SDS011;49810;48.160;10.812;2023-04-07T04:57:17;17.88;;;10.40;;
47749;SDS011;49810;48.160;10.812;2023-04-07T04:59:45;18.08;;;10.93;;
47749;SDS011;49810;48.160;10.812;2023-04-07T05:02:14;20.80;;;11.70;;
47749;SDS011;49810;48.160;10.812;2023-04-07T05:04:42;22.27;;;12.02;;
47749;SDS011;49810;48.160;10.812;2023-04-07T05:07:19;23.70;;;12.00;;
47749;SDS011;49810;48.160;10.812;2023-04-07T05:09:47;19.58;;;11.43;;
47749;SDS011;49810;48.160;10.812;2023-04-07T05:12:17;22.30;;;10.90;;
47749;SDS011;49810;48.160;10.812;2023-04-07T05:14:49;20.63;;;11.88;;
47749;SDS011;49810;48.160;10.812;2023-04-07T05:17:18;17.10;;;10.48;;
47749;SDS011;49810;48.160;10.812;2023-04-07T05:19:47;18.02;;;10.48;;
47749;SDS011;49810;48.160;10.812;2023-04-07T05:22:27;20.23;;;11.10;;
47749;SDS011;49810;48.160;10.812;2023-04-07T05:24:55;18.90;;;10.82;;
47749;SDS011;49810;48.160;10.812;2023-04-07T05:27:23;16.85;;;10.45;;
47749;SDS011;49810;48.160;10.812;2023-04-07T05:29:54;19.50;;;10.95;;
47749;SDS011;49810;48.160;10.812;2023-04-07T05:32:28;16.70;;;10.50;;
47749;SDS011;49810;48.160;10.812;2023-04-07T05:35:02;19.75;;;10.10;;
47749;SDS011;49810;48.160;10.812;2023-04-07T05:37:33;15.30;;;9.38;;
47749;SDS011;49810;48.160;10.812;2023-04-07T05:40:03;20.00;;;9.70;;
47749;SDS011;49810;48.160;10.812;2023-04-07T05:42:32;25.10;;;14.82;;
47749;SDS011;49810;48.160;10.812;2023-04-07T05:45:01;19.52;;;12.43;;
47749;SDS011;49810;48.160;10.812;2023-04-07T05:47:31;18.48;;;10.50;;
47749;SDS011;49810;48.160;10.812;2023-04-07T05:49:59;16.30;;;9.90;;
47749;SDS011;49810;48.160;10.812;2023-04-07T05:52:29;16.25;;;9.93;;
47749;SDS011;49810;48.160;10.812;2023-04-07T05:55:07;16.75;;;9.40;;
47749;SDS011;49810;48.160;10.812;2023-04-07T05:57:34;17.02;;;10.68;;
47749;SDS011;49810;48.160;10.812;2023-04-07T06:00:03;17.92;;;10.25;;
47749;SDS011;49810;48.160;10.812;2023-04-07T06:02:42;17.23;;;10.13;;
47749;SDS011;49810;48.160;10.812;2023-04-07T06:05:15;18.17;;;9.32;;
47749;SDS011;49810;48.160;10.812;2023-04-07T06:07:45;30.15;;;16.95;;
47749;SDS011;49810;48.160;10.812;2023-04-07T06:10:13;15.20;;;10.18;;
47749;SDS011;49810;48.160;10.812;2023-04-07T06:12:44;16.20;;;9.48;;
47749;SDS011;49810;48.160;10.812;2023-04-07T06:15:11;16.70;;;10.05;;
47749;SDS011;49810;48.160;10.812;2023-04-07T06:17:39;16.45;;;9.63;;
47749;SDS011;49810;48.160;10.812;2023-04-07T06:20:11;15.48;;;9.18;;
47749;SDS011;49810;48.160;10.812;2023-04-07T06:22:38;14.63;;;9.15;;
47749;SDS011;49810;48.160;10.812;2023-04-07T06:25:07;15.65;;;9.48;;
47749;SDS011;49810;48.160;10.812;2023-04-07T06:27:35;17.13;;;10.25;;
47749;SDS011;49810;48.160;10.812;2023-04-07T06:30:03;17.67;;;10.38;;
47749;SDS011;49810;48.160;10.812;2023-04-07T06:32:31;22.25;;;12.38;;
47749;SDS011;49810;48.160;10.812;2023-04-07T06:35:00;16.05;;;10.00;;
47749;SDS011;49810;48.160;10.812;2023-04-07T06:37:30;16.08;;;9.27;;
47749;SDS011;49810;48.160;10.812;2023-04-07T06:39:58;15.43;;;10.20;;
47749;SDS011;49810;48.160;10.812;2023-04-07T06:42:26;15.35;;;9.52;;
47749;SDS011;49810;48.160;10.812;2023-04-07T06:45:05;17.08;;;10.48;;
47749;SDS011;49810;48.160;10.812;2023-04-07T06:47:34;13.85;;;8.90;;
47749;SDS011;49810;48.160;10.812;2023-04-07T06:50:02;15.43;;;9.95;;
47749;SDS011;49810;48.160;10.812;2023-04-07T06:52:32;17.40;;;9.88;;
47749;SDS011;49810;48.160;10.812;2023-04-07T06:55:00;30.40;;;18.75;;
47749;SDS011;49810;48.160;10.812;2023-04-07T06:57:29;21.20;;;11.40;;
47749;SDS011;49810;48.160;10.812;2023-04-07T06:59:57;12.80;;;8.60;;
47749;SDS011;49810;48.160;10.812;2023-04-07T07:02:25;15.45;;;9.52;;
47749;SDS011;49810;48.160;10.812;2023-04-07T07:04:53;15.02;;;9.65;;
47749;SDS011;49810;48.160;10.812;2023-04-07T07:07:21;13.10;;;8.30;;
47749;SDS011;49810;48.160;10.812;2023-04-07T07:09:52;17.27;;;10.48;;
47749;SDS011;49810;48.160;10.812;2023-04-07T07:12:20;17.02;;;10.30;;
47749;SDS011;49810;48.160;10.812;2023-04-07T07:14:48;16.73;;;10.02;;
47749;SDS011;49810;48.160;10.812;2023-04-07T07:17:16;15.20;;;9.50;;
47749;SDS011;49810;48.160;10.812;2023-04-07T07:19:44;14.35;;;9.60;;
47749;SDS011;49810;48.160;10.812;2023-04-07T07:22:11;13.90;;;9.18;;
47749;SDS011;49810;48.160;10.812;2023-04-07T07:24:39;14.90;;;8.88;;
47749;SDS011;49810;48.160;10.812;2023-04-07T07:27:08;13.52;;;8.85;;
47749;SDS011;49810;48.160;10.812;2023-04-07T07:29:36;16.88;;;10.98;;
47749;SDS011;49810;48.160;10.812;2023-04-07T07:32:04;12.98;;;9.10;;
47749;SDS011;49810;48.160;10.812;2023-04-07T07:34:32;13.18;;;8.57;;
47749;SDS011;49810;48.160;10.812;2023-04-07T07:37:00;14.13;;;8.45;;
47749;SDS011;49810;48.160;10.812;2023-04-07T07:39:28;13.88;;;9.20;;
47749;SDS011;49810;48.160;10.812;2023-04-07T07:41:56;12.95;;;9.00;;
47749;SDS011;49810;48.160;10.812;2023-04-07T07:44:25;15.45;;;9.43;;
47749;SDS011;49810;48.160;10.812;2023-04-07T07:46:53;13.40;;;8.75;;
47749;SDS011;49810;48.160;10.812;2023-04-07T07:49:21;13.65;;;9.07;;
47749;SDS011;49810;48.160;10.812;2023-04-07T07:51:49;13.32;;;9.05;;
47749;SDS011;49810;48.160;10.812;2023-04-07T07:54:18;12.23;;;9.35;;
47749;SDS011;49810;48.160;10.812;2023-04-07T07:56:49;16.50;;;10.35;;
47749;SDS011;49810;48.160;10.812;2023-04-07T07:59:17;13.88;;;8.95;;
47749;SDS011;49810;48.160;10.812;2023-04-07T08:01:47;15.43;;;10.10;;
47749;SDS011;49810;48.160;10.812;2023-04-07T08:04:14;13.73;;;9.57;;
47749;SDS011;49810;48.160;10.812;2023-04-07T08:06:42;14.65;;;9.07;;
47749;SDS011;49810;48.160;10.812;2023-04-07T08:09:11;14.68;;;9.55;;
47749;SDS011;49810;48.160;10.812;2023-04-07T08:11:40;11.80;;;8.75;;
47749;SDS011;49810;48.160;10.812;2023-04-07T08:14:07;12.15;;;8.63;;
47749;SDS011;49810;48.160;10.812;2023-04-07T08:16:35;12.43;;;8.45;;
47749;SDS011;49810;48.160;10.812;2023-04-07T08:19:05;11.25;;;7.90;;
47749;SDS011;49810;48.160;10.812;2023-04-07T08:21:34;12.65;;;8.38;;
47749;SDS011;49810;48.160;10.812;2023-04-07T08:24:02;12.93;;;8.63;;
47749;SDS011;49810;48.160;10.812;2023-04-07T08:26:30;12.77;;;8.13;;
47749;SDS011;49810;48.160;10.812;2023-04-07T08:28:58;12.88;;;8.88;;
47749;SDS011;49810;48.160;10.812;2023-04-07T08:31:26;14.55;;;8.70;;
47749;SDS011;49810;48.160;10.812;2023-04-07T08:33:55;11.05;;;7.82;;
47749;SDS011;49810;48.160;10.812;2023-04-07T08:36:25;10.52;;;6.82;;
47749;SDS011;49810;48.160;10.812;2023-04-07T08:38:54;9.55;;;6.50;;
47749;SDS011;49810;48.160;10.812;2023-04-07T08:41:23;12.15;;;6.93;;
47749;SDS011;49810;48.160;10.812;2023-04-07T08:43:54;11.60;;;6.43;;
47749;SDS011;49810;48.160;10.812;2023-04-07T08:46:23;9.50;;;6.72;;
47749;SDS011;49810;48.160;10.812;2023-04-07T08:48:53;10.95;;;6.93;;
47749;SDS011;49810;48.160;10.812;2023-04-07T08:51:26;9.02;;;6.38;;
47749;SDS011;49810;48.160;10.812;2023-04-07T08:53:57;10.18;;;6.68;;
47749;SDS011;49810;48.160;10.812;2023-04-07T08:56:27;9.40;;;6.63;;
47749;SDS011;49810;48.160;10.812;2023-04-07T08:58:56;12.68;;;8.73;;
47749;SDS011;49810;48.160;10.812;2023-04-07T09:01:24;10.68;;;7.68;;
47749;SDS011;49810;48.160;10.812;2023-04-07T09:03:55;10.23;;;6.57;;
47749;SDS011;49810;48.160;10.812;2023-04-07T09:06:23;11.02;;;7.25;;
47749;SDS011;49810;48.160;10.812;2023-04-07T09:08:52;12.65;;;7.53;;
47749;SDS011;49810;48.160;10.812;2023-04-07T09:11:22;11.55;;;6.88;;
47749;SDS011;49810;48.160;10.812;2023-04-07T09:13:50;12.75;;;6.78;;
47749;SDS011;49810;48.160;10.812;2023-04-07T09:16:18;12.15;;;6.78;;
47749;SDS011;49810;48.160;10.812;2023-04-07T09:18:46;11.15;;;6.97;;
47749;SDS011;49810;48.160;10.812;2023-04-07T09:21:14;10.35;;;6.85;;
47749;SDS011;49810;48.160;10.812;2023-04-07T09:23:42;11.98;;;7.32;;
47749;SDS011;49810;48.160;10.812;2023-04-07T09:26:17;10.68;;;6.60;;
47749;SDS011;49810;48.160;10.812;2023-04-07T09:28:47;10.75;;;7.45;;
47749;SDS011;49810;48.160;10.812;2023-04-07T09:31:16;14.82;;;7.60;;
47749;SDS011;49810;48.160;10.812;2023-04-07T09:33:43;10.30;;;7.03;;
47749;SDS011;49810;48.160;10.812;2023-04-07T09:36:12;12.93;;;8.10;;
47749;SDS011;49810;48.160;10.812;2023-04-07T09:38:40;9.07;;;6.47;;
47749;SDS011;49810;48.160;10.812;2023-04-07T09:41:09;11.35;;;6.70;;
47749;SDS011;49810;48.160;10.812;2023-04-07T09:43:39;10.80;;;7.18;;
47749;SDS011;49810;48.160;10.812;2023-04-07T09:46:10;12.35;;;6.97;;
47749;SDS011;49810;48.160;10.812;2023-04-07T09:48:38;10.75;;;6.60;;
47749;SDS011;49810;48.160;10.812;2023-04-07T09:51:07;10.10;;;7.07;;
47749;SDS011;49810;48.160;10.812;2023-04-07T09:53:42;9.27;;;7.05;;
47749;SDS011;49810;48.160;10.812;2023-04-07T09:56:10;10.90;;;7.25;;
47749;SDS011;49810;48.160;10.812;2023-04-07T09:58:38;10.23;;;6.88;;
47749;SDS011;49810;48.160;10.812;2023-04-07T10:01:07;10.38;;;7.38;;
47749;SDS011;49810;48.160;10.812;2023-04-07T10:03:37;11.95;;;7.60;;
47749;SDS011;49810;48.160;10.812;2023-04-07T10:06:06;10.35;;;6.80;;
47749;SDS011;49810;48.160;10.812;2023-04-07T10:08:35;9.68;;;7.13;;
47749;SDS011;49810;48.160;10.812;2023-04-07T10:11:04;9.85;;;7.00;;
47749;SDS011;49810;48.160;10.812;2023-04-07T10:13:32;8.70;;;6.53;;
47749;SDS011;49810;48.160;10.812;2023-04-07T10:16:02;9.32;;;6.55;;
47749;SDS011;49810;48.160;10.812;2023-04-07T10:18:34;9.18;;;6.10;;
47749;SDS011;49810;48.160;10.812;2023-04-07T10:21:05;10.48;;;5.90;;
47749;SDS011;49810;48.160;10.812;2023-04-07T10:23:47;9.00;;;6.65;;
47749;SDS011;49810;48.160;10.812;2023-04-07T10:26:16;15.52;;;10.60;;
47749;SDS011;49810;48.160;10.812;2023-04-07T10:28:45;10.00;;;6.90;;
47749;SDS011;49810;48.160;10.812;2023-04-07T10:31:15;13.55;;;7.28;;
47749;SDS011;49810;48.160;10.812;2023-04-07T10:33:44;12.43;;;7.43;;
47749;SDS011;49810;48.160;10.812;2023-04-07T10:36:17;11.63;;;7.32;;
47749;SDS011;49810;48.160;10.812;2023-04-07T10:41:32;11.18;;;7.43;;
47749;SDS011;49810;48.160;10.812;2023-04-07T10:44:02;10.70;;;7.60;;
47749;SDS011;49810;48.160;10.812;2023-04-07T10:49:19;11.82;;;7.25;;
47749;SDS011;49810;48.160;10.812;2023-04-07T10:51:56;10.20;;;6.95;;
47749;SDS011;49810;48.160;10.812;2023-04-07T10:54:44;10.10;;;6.45;;
47749;SDS011;49810;48.160;10.812;2023-04-07T10:57:13;9.45;;;6.40;;
47749;SDS011;49810;48.160;10.812;2023-04-07T11:02:29;9.57;;;7.63;;
47749;SDS011;49810;48.160;10.812;2023-04-07T11:04:58;8.73;;;6.30;;
47749;SDS011;49810;48.160;10.812;2023-04-07T11:07:44;11.77;;;6.70;;
47749;SDS011;49810;48.160;10.812;2023-04-07T11:10:13;10.73;;;7.03;;
47749;SDS011;49810;48.160;10.812;2023-04-07T11:12:43;11.05;;;6.63;;
47749;SDS011;49810;48.160;10.812;2023-04-07T11:15:20;11.00;;;7.05;;
47749;SDS011;49810;48.160;10.812;2023-04-07T11:18:06;11.48;;;7.43;;
47749;SDS011;49810;48.160;10.812;2023-04-07T11:20:43;13.27;;;8.55;;
47749;SDS011;49810;48.160;10.812;2023-04-07T11:23:13;12.68;;;7.80;;
47749;SDS011;49810;48.160;10.812;2023-04-07T11:25:43;9.95;;;7.00;;
47749;SDS011;49810;48.160;10.812;2023-04-07T11:28:12;9.35;;;7.10;;
47749;SDS011;49810;48.160;10.812;2023-04-07T11:30:43;11.13;;;6.60;;
47749;SDS011;49810;48.160;10.812;2023-04-07T11:33:15;11.07;;;7.10;;
47749;SDS011;49810;48.160;10.812;2023-04-07T11:35:51;11.05;;;7.72;;
47749;SDS011;49810;48.160;10.812;2023-04-07T11:38:23;11.07;;;7.30;;
47749;SDS011;49810;48.160;10.812;2023-04-07T11:41:09;11.20;;;7.40;;
47749;SDS011;49810;48.160;10.812;2023-04-07T11:43:38;11.13;;;7.40;;
47749;SDS011;49810;48.160;10.812;2023-04-07T11:46:08;10.88;;;6.88;;
47749;SDS011;49810;48.160;10.812;2023-04-07T11:48:37;10.50;;;7.60;;
47749;SDS011;49810;48.160;10.812;2023-04-07T11:51:05;10.15;;;7.38;;
47749;SDS011;49810;48.160;10.812;2023-04-07T11:53:36;9.55;;;7.15;;
47749;SDS011;49810;48.160;10.812;2023-04-07T11:56:07;11.80;;;7.93;;
47749;SDS011;49810;48.160;10.812;2023-04-07T11:58:45;11.93;;;7.80;;
47749;SDS011;49810;48.160;10.812;2023-04-07T12:01:18;12.63;;;7.95;;
47749;SDS011;49810;48.160;10.812;2023-04-07T12:03:56;10.25;;;7.45;;
47749;SDS011;49810;48.160;10.812;2023-04-07T12:06:25;8.95;;;7.25;;
47749;SDS011;49810;48.160;10.812;2023-04-07T12:08:55;11.38;;;7.03;;
47749;SDS011;49810;48.160;10.812;2023-04-07T12:11:23;11.05;;;8.23;;
47749;SDS011;49810;48.160;10.812;2023-04-07T12:13:53;10.65;;;7.57;;
47749;SDS011;49810;48.160;10.812;2023-04-07T12:16:23;10.65;;;7.18;;
47749;SDS011;49810;48.160;10.812;2023-04-07T12:18:53;11.25;;;6.60;;
47749;SDS011;49810;48.160;10.812;2023-04-07T12:21:22;9.45;;;6.43;;
47749;SDS011;49810;48.160;10.812;2023-04-07T12:23:52;11.05;;;6.75;;
47749;SDS011;49810;48.160;10.812;2023-04-07T12:26:21;13.95;;;7.05;;
47749;SDS011;49810;48.160;10.812;2023-04-07T12:28:51;12.85;;;8.00;;
47749;SDS011;49810;48.160;10.812;2023-04-07T12:31:18;9.88;;;7.25;;
47749;SDS011;49810;48.160;10.812;2023-04-07T12:33:47;10.38;;;6.90;;
47749;SDS011;49810;48.160;10.812;2023-04-07T12:36:15;10.07;;;6.78;;
47749;SDS011;49810;48.160;10.812;2023-04-07T12:38:43;11.50;;;7.22;;
47749;SDS011;49810;48.160;10.812;2023-04-07T12:41:11;9.88;;;6.88;;
47749;SDS011;49810;48.160;10.812;2023-04-07T12:43:40;11.88;;;7.43;;
47749;SDS011;49810;48.160;10.812;2023-04-07T12:46:09;10.00;;;7.25;;
47749;SDS011;49810;48.160;10.812;2023-04-07T12:48:37;10.35;;;7.10;;
47749;SDS011;49810;48.160;10.812;2023-04-07T12:51:05;11.73;;;7.63;;
47749;SDS011;49810;48.160;10.812;2023-04-07T12:53:33;11.73;;;8.23;;
47749;SDS011;49810;48.160;10.812;2023-04-07T12:56:01;10.80;;;6.75;;
47749;SDS011;49810;48.160;10.812;2023-04-07T12:58:29;12.07;;;7.20;;
47749;SDS011;49810;48.160;10.812;2023-04-07T13:00:58;11.00;;;7.20;;
47749;SDS011;49810;48.160;10.812;2023-04-07T13:03:27;11.07;;;7.45;;
47749;SDS011;49810;48.160;10.812;2023-04-07T13:05:55;10.02;;;7.10;;
47749;SDS011;49810;48.160;10.812;2023-04-07T13:08:26;11.48;;;7.65;;
47749;SDS011;49810;48.160;10.812;2023-04-07T13:10:54;11.75;;;7.80;;
47749;SDS011;49810;48.160;10.812;2023-04-07T13:13:22;10.90;;;7.15;;
47749;SDS011;49810;48.160;10.812;2023-04-07T13:15:50;10.23;;;7.32;;
47749;SDS011;49810;48.160;10.812;2023-04-07T13:18:20;9.45;;;6.75;;
47749;SDS011;49810;48.160;10.812;2023-04-07T13:20:48;13.43;;;7.75;;
47749;SDS011;49810;48.160;10.812;2023-04-07T13:23:36;10.18;;;6.75;;
47749;SDS011;49810;48.160;10.812;2023-04-07T13:26:19;10.68;;;6.95;;
47749;SDS011;49810;48.160;10.812;2023-04-07T13:28:47;13.75;;;7.57;;
47749;SDS011;49810;48.160;10.812;2023-04-07T13:31:15;9.82;;;6.47;;
47749;SDS011;49810;48.160;10.812;2023-04-07T13:33:45;9.52;;;6.13;;
47749;SDS011;49810;48.160;10.812;2023-04-07T13:36:13;11.40;;;6.15;;
47749;SDS011;49810;48.160;10.812;2023-04-07T13:38:41;10.13;;;6.15;;
47749;SDS011;49810;48.160;10.812;2023-04-07T13:41:09;9.88;;;5.40;;
47749;SDS011;49810;48.160;10.812;2023-04-07T13:43:36;8.93;;;4.80;;
47749;SDS011;49810;48.160;10.812;2023-04-07T13:46:04;7.60;;;5.22;;
47749;SDS011;49810;48.160;10.812;2023-04-07T13:48:51;7.18;;;4.57;;
47749;SDS011;49810;48.160;10.812;2023-04-07T13:51:20;7.40;;;4.32;;
47749;SDS011;49810;48.160;10.812;2023-04-07T13:53:48;6.45;;;3.72;;
47749;SDS011;49810;48.160;10.812;2023-04-07T13:56:16;6.63;;;3.42;;
47749;SDS011;49810;48.160;10.812;2023-04-07T13:58:44;4.88;;;3.33;;
47749;SDS011;49810;48.160;10.812;2023-04-07T14:01:13;6.05;;;4.00;;
47749;SDS011;49810;48.160;10.812;2023-04-07T14:03:42;7.45;;;3.45;;
47749;SDS011;49810;48.160;10.812;2023-04-07T14:06:13;5.57;;;3.05;;
47749;SDS011;49810;48.160;10.812;2023-04-07T14:08:41;6.65;;;3.80;;
47749;SDS011;49810;48.160;10.812;2023-04-07T14:11:09;5.57;;;3.40;;
47749;SDS011;49810;48.160;10.812;2023-04-07T14:13:36;7.57;;;3.83;;
47749;SDS011;49810;48.160;10.812;2023-04-07T14:16:05;6.47;;;3.15;;
47749;SDS011;49810;48.160;10.812;2023-04-07T14:18:35;5.88;;;3.65;;
47749;SDS011;49810;48.160;10.812;2023-04-07T14:21:04;5.50;;;3.28;;
47749;SDS011;49810;48.160;10.812;2023-04-07T14:23:35;6.80;;;3.85;;
47749;SDS011;49810;48.160;10.812;2023-04-07T14:26:04;5.47;;;2.38;;
47749;SDS011;49810;48.160;10.812;2023-04-07T14:28:34;4.75;;;2.70;;
47749;SDS011;49810;48.160;10.812;2023-04-07T14:31:04;4.05;;;2.40;;
47749;SDS011;49810;48.160;10.812;2023-04-07T14:33:33;5.07;;;2.92;;
47749;SDS011;49810;48.160;10.812;2023-04-07T14:36:01;7.35;;;2.90;;
47749;SDS011;49810;48.160;10.812;2023-04-07T14:38:30;5.60;;;2.85;;
47749;SDS011;49810;48.160;10.812;2023-04-07T14:41:03;7.97;;;2.67;;
47749;SDS011;49810;48.160;10.812;2023-04-07T14:43:35;4.80;;;2.03;;
47749;SDS011;49810;48.160;10.812;2023-04-07T14:46:04;6.38;;;1.90;;
47749;SDS011;49810;48.160;10.812;2023-04-07T14:48:33;3.95;;;1.98;;